createdAt,value
2018-06-10T00:04:36.715Z,20.80
2018-06-10T00:07:04.915Z,20.70
2018-06-10T00:09:33.001Z,20.80
2018-06-10T00:14:29.151Z,20.60
2018-06-10T00:16:57.248Z,20.60
2018-06-10T00:19:25.376Z,20.60
2018-06-10T00:21:53.447Z,20.50
2018-06-10T00:24:21.588Z,20.40
2018-06-10T00:26:49.718Z,20.40
2018-06-10T00:29:21.275Z,20.40
2018-06-10T00:31:49.842Z,20.40
2018-06-10T00:34:21.554Z,20.20
2018-06-10T00:36:49.670Z,20.30
2018-06-10T00:39:17.853Z,20.30
2018-06-10T00:41:45.979Z,20.30
2018-06-10T00:44:14.113Z,20.30
2018-06-10T00:46:42.231Z,20.30
2018-06-10T00:49:10.426Z,20.30
2018-06-10T00:51:38.553Z,20.20
2018-06-10T00:54:06.656Z,20.10
2018-06-10T00:56:50.667Z,20.10
2018-06-10T00:59:18.768Z,20.10
2018-06-10T01:01:46.835Z,20.10
2018-06-10T01:04:14.947Z,20.10
2018-06-10T01:06:43.146Z,20.10
2018-06-10T01:09:11.384Z,20.20
2018-06-10T01:11:39.698Z,20.10
2018-06-10T01:14:07.836Z,20.10
2018-06-10T01:16:35.939Z,20.00
2018-06-10T01:19:04.127Z,20.00
2018-06-10T01:21:32.197Z,19.90
2018-06-10T01:24:00.335Z,19.90
2018-06-10T01:26:34.159Z,19.90
2018-06-10T01:29:02.326Z,19.90
2018-06-10T01:31:30.535Z,20.00
2018-06-10T01:33:58.666Z,20.00
2018-06-10T01:36:26.760Z,20.00
2018-06-10T01:38:54.855Z,20.00
2018-06-10T01:41:22.924Z,19.90
2018-06-10T01:43:51.079Z,20.00
2018-06-10T01:46:19.187Z,20.00
2018-06-10T01:48:47.300Z,20.00
2018-06-10T01:51:15.396Z,20.00
2018-06-10T01:53:43.468Z,20.00
2018-06-10T01:56:11.558Z,20.00
2018-06-10T01:58:39.658Z,20.00
2018-06-10T02:01:07.755Z,19.80
2018-06-10T02:03:35.815Z,19.80
2018-06-10T02:06:04.019Z,19.90
2018-06-10T02:08:32.155Z,19.90
2018-06-10T02:11:03.182Z,20.00
2018-06-10T02:13:31.247Z,20.00
2018-06-10T02:15:59.344Z,19.90
2018-06-10T02:18:27.455Z,19.80
2018-06-10T02:20:55.589Z,19.70
2018-06-10T02:23:23.658Z,19.70
2018-06-10T02:25:51.790Z,19.60
2018-06-10T02:28:19.876Z,19.70
2018-06-10T02:30:47.995Z,19.70
2018-06-10T02:33:16.077Z,19.70
2018-06-10T02:35:44.216Z,19.70
2018-06-10T02:38:12.288Z,19.70
2018-06-10T02:40:40.399Z,19.80
2018-06-10T02:43:08.459Z,19.70
2018-06-10T02:45:36.508Z,19.60
2018-06-10T02:48:04.623Z,19.60
2018-06-10T02:50:32.706Z,19.60
2018-06-10T02:53:00.822Z,19.50
2018-06-10T02:55:29.013Z,19.50
2018-06-10T02:57:57.188Z,19.40
2018-06-10T03:00:25.259Z,19.50
2018-06-10T03:02:53.340Z,19.50
2018-06-10T03:07:49.485Z,19.70
2018-06-10T03:10:17.557Z,19.70
2018-06-10T03:12:45.705Z,19.60
2018-06-10T03:15:13.863Z,19.50
2018-06-10T03:17:41.999Z,19.50
2018-06-10T03:20:10.152Z,19.50
2018-06-10T03:22:38.211Z,19.50
2018-06-10T03:25:06.324Z,19.60
2018-06-10T03:27:34.443Z,19.60
2018-06-10T03:30:02.688Z,19.60
2018-06-10T03:34:58.777Z,19.60
2018-06-10T03:37:26.859Z,19.50
2018-06-10T03:39:54.996Z,19.40
2018-06-10T03:42:23.123Z,19.50
2018-06-10T03:44:51.229Z,19.50
2018-06-10T03:47:19.418Z,19.50
2018-06-10T03:49:47.538Z,19.40
2018-06-10T03:52:15.623Z,19.40
2018-06-10T03:54:43.647Z,19.40
2018-06-10T03:57:11.811Z,19.30
2018-06-10T03:59:39.943Z,19.30
2018-06-10T04:02:08.168Z,19.30
2018-06-10T04:04:36.254Z,19.40
2018-06-10T04:07:04.377Z,19.30
2018-06-10T04:09:32.423Z,19.30
2018-06-10T04:12:00.570Z,19.30
2018-06-10T04:14:28.699Z,19.40
2018-06-10T04:16:56.801Z,19.40
2018-06-10T04:19:24.884Z,19.40
2018-06-10T04:21:53.996Z,19.40
2018-06-10T04:24:22.151Z,19.50
2018-06-10T04:26:50.260Z,19.40
2018-06-10T04:29:18.415Z,19.40
2018-06-10T04:31:46.468Z,19.40
2018-06-10T04:34:14.597Z,19.50
2018-06-10T04:36:42.672Z,19.60
2018-06-10T04:39:10.798Z,19.60
2018-06-10T04:41:38.924Z,19.60
2018-06-10T04:44:06.970Z,19.70
2018-06-10T04:46:35.068Z,19.60
2018-06-10T04:49:03.159Z,19.50
2018-06-10T04:51:31.318Z,19.50
2018-06-10T04:53:59.557Z,19.50
2018-06-10T04:56:27.619Z,19.50
2018-06-10T04:58:55.706Z,19.50
2018-06-10T05:01:23.811Z,19.60
2018-06-10T05:03:52.002Z,19.60
2018-06-10T05:06:20.104Z,19.70
2018-06-10T05:08:48.223Z,19.80
2018-06-10T05:11:16.310Z,19.90
2018-06-10T05:13:44.391Z,20.00
2018-06-10T05:16:12.552Z,20.00
2018-06-10T05:18:40.654Z,20.10
2018-06-10T05:21:08.806Z,20.30
2018-06-10T05:23:36.856Z,20.40
2018-06-10T05:26:04.975Z,20.60
2018-06-10T05:28:33.126Z,20.70
2018-06-10T05:31:01.240Z,20.70
2018-06-10T05:33:29.426Z,20.70
2018-06-10T05:35:57.591Z,20.80
2018-06-10T05:38:25.703Z,20.80
2018-06-10T05:40:53.814Z,20.90
2018-06-10T05:43:21.914Z,21.00
2018-06-10T05:45:49.979Z,20.90
2018-06-10T05:48:18.027Z,20.90
2018-06-10T05:55:42.143Z,21.00
2018-06-10T06:00:38.317Z,21.20
2018-06-10T06:03:06.432Z,21.20
2018-06-10T06:05:34.539Z,21.10
2018-06-10T06:10:30.604Z,21.10
2018-06-10T06:12:58.776Z,20.90
2018-06-10T06:15:26.899Z,21.00
2018-06-10T06:17:55.199Z,21.00
2018-06-10T06:20:23.272Z,21.20
2018-06-10T06:22:51.424Z,21.30
2018-06-10T06:27:47.615Z,21.40
2018-06-10T06:30:15.672Z,21.50
2018-06-10T06:32:43.752Z,21.60
2018-06-10T06:35:11.937Z,21.70
2018-06-10T06:37:40.016Z,21.60
2018-06-10T06:40:08.179Z,21.70
2018-06-10T06:42:36.239Z,21.70
2018-06-10T06:45:04.422Z,21.80
2018-06-10T06:47:32.722Z,21.90
2018-06-10T06:50:00.916Z,22.00
2018-06-10T06:52:28.973Z,22.00
2018-06-10T06:54:57.100Z,22.00
2018-06-10T06:57:25.235Z,22.10
2018-06-10T06:59:53.312Z,22.10
2018-06-10T07:02:21.548Z,22.00
2018-06-10T07:04:50.635Z,22.10
2018-06-10T07:07:18.837Z,22.10
2018-06-10T07:09:47.486Z,22.20
2018-06-10T07:12:15.627Z,22.20
2018-06-10T07:14:43.680Z,22.20
2018-06-10T07:17:11.863Z,22.20
2018-06-10T07:19:40.023Z,22.30
2018-06-10T07:22:08.171Z,22.30
2018-06-10T07:24:36.482Z,22.40
2018-06-10T07:27:04.681Z,22.50
2018-06-10T07:29:32.868Z,22.60
2018-06-10T07:32:01.566Z,22.70
2018-06-10T07:34:29.804Z,22.70
2018-06-10T07:36:57.921Z,22.70
2018-06-10T07:39:26.040Z,22.60
2018-06-10T07:41:54.154Z,22.70
2018-06-10T07:44:22.262Z,22.80
2018-06-10T07:46:50.306Z,22.70
2018-06-10T07:51:46.612Z,22.90
2018-06-10T07:54:15.581Z,23.00
2018-06-10T07:56:43.677Z,23.10
2018-06-10T07:59:12.033Z,23.20
2018-06-10T08:01:40.125Z,23.40
2018-06-10T08:04:08.609Z,23.50
2018-06-10T08:06:36.731Z,23.70
2018-06-10T08:09:07.063Z,23.70
2018-06-10T08:11:35.208Z,23.70
2018-06-10T08:16:31.491Z,24.00
2018-06-10T08:18:59.987Z,24.10
2018-06-10T08:21:28.144Z,24.20
2018-06-10T08:23:56.229Z,24.20
2018-06-10T08:26:24.403Z,24.40
2018-06-10T08:28:52.512Z,24.40
2018-06-10T08:31:20.660Z,24.40
2018-06-10T08:33:48.760Z,24.60
2018-06-10T08:36:17.002Z,24.80
2018-06-10T08:38:45.217Z,24.90
2018-06-10T08:41:13.330Z,25.00
2018-06-10T08:43:41.563Z,24.40
2018-06-10T08:46:11.088Z,24.20
2018-06-10T08:48:40.680Z,24.40
2018-06-10T08:51:08.757Z,24.40
2018-06-10T08:53:36.832Z,24.40
2018-06-10T08:56:05.033Z,24.30
2018-06-10T08:58:33.240Z,24.10
2018-06-10T09:01:01.389Z,24.30
2018-06-10T09:03:29.475Z,24.50
2018-06-10T09:05:57.654Z,24.80
2018-06-10T09:08:25.913Z,24.80
2018-06-10T09:10:54.102Z,24.80
2018-06-10T09:13:22.223Z,24.90
2018-06-10T09:15:50.392Z,25.10
2018-06-10T09:18:18.541Z,25.20
2018-06-10T09:20:46.780Z,25.10
2018-06-10T09:23:14.867Z,25.00
2018-06-10T09:25:42.957Z,25.10
2018-06-10T09:30:39.124Z,25.10
2018-06-10T09:33:07.178Z,25.20
2018-06-10T09:35:35.289Z,25.10
2018-06-10T09:38:03.472Z,24.90
2018-06-10T09:40:31.568Z,24.80
2018-06-10T09:47:55.747Z,24.50
2018-06-10T09:50:23.890Z,24.70
2018-06-10T09:52:52.070Z,24.90
2018-06-10T09:55:20.241Z,25.00
2018-06-10T10:00:23.021Z,25.20
2018-06-10T10:02:51.337Z,25.40
2018-06-10T10:05:19.535Z,25.40
2018-06-10T10:07:47.642Z,25.40
2018-06-10T10:10:15.831Z,25.20
2018-06-10T10:12:43.998Z,24.90
2018-06-10T10:15:12.049Z,24.80
2018-06-10T10:17:40.152Z,24.90
2018-06-10T10:20:08.222Z,25.10
2018-06-10T10:22:36.356Z,25.20
2018-06-10T10:25:04.548Z,25.50
2018-06-10T10:27:32.657Z,25.60
2018-06-10T10:30:00.795Z,25.70
2018-06-10T10:32:28.882Z,25.60
2018-06-10T10:34:57.008Z,25.40
2018-06-10T10:37:25.215Z,24.90
2018-06-10T10:39:53.347Z,24.80
2018-06-10T10:44:49.458Z,24.80
2018-06-10T10:47:17.559Z,24.90
2018-06-10T10:52:13.731Z,24.90
2018-06-10T10:54:41.877Z,24.90
2018-06-10T10:57:10.029Z,24.90
2018-06-10T10:59:38.214Z,25.10
2018-06-10T11:04:34.480Z,25.50
2018-06-10T11:07:02.624Z,25.60
2018-06-10T11:11:58.780Z,26.00
2018-06-10T11:14:26.903Z,25.80
2018-06-10T11:16:55.054Z,25.60
2018-06-10T11:19:23.245Z,25.20
2018-06-10T11:21:51.374Z,25.30
2018-06-10T11:24:19.548Z,25.30
2018-06-10T11:26:47.665Z,25.40
2018-06-10T11:29:15.800Z,25.40
2018-06-10T11:31:43.983Z,25.30
2018-06-10T11:34:12.109Z,25.40
2018-06-10T11:36:40.315Z,25.30
2018-06-10T11:39:08.904Z,25.30
2018-06-10T11:41:37.173Z,25.20
2018-06-10T11:44:05.258Z,25.30
2018-06-10T11:46:33.386Z,25.40
2018-06-10T11:51:29.698Z,25.30
2018-06-10T11:53:57.864Z,25.30
2018-06-10T11:56:26.016Z,25.40
2018-06-10T11:58:54.095Z,25.50
2018-06-10T12:01:22.268Z,25.70
2018-06-10T12:03:50.427Z,25.90
2018-06-10T12:06:18.576Z,26.00
2018-06-10T12:08:46.641Z,26.10
2018-06-10T12:13:42.931Z,26.30
2018-06-10T12:16:11.093Z,26.20
2018-06-10T12:18:39.346Z,26.10
2018-06-10T12:21:07.493Z,25.80
2018-06-10T12:23:35.658Z,25.80
2018-06-10T12:26:03.747Z,25.90
2018-06-10T12:30:59.883Z,26.00
2018-06-10T12:33:28.000Z,26.00
2018-06-10T12:35:56.199Z,26.10
2018-06-10T12:38:24.378Z,26.20
2018-06-10T12:40:52.497Z,26.40
2018-06-10T12:43:20.663Z,26.50
2018-06-10T12:45:48.788Z,26.60
2018-06-10T12:48:17.048Z,26.70
2018-06-10T12:50:45.229Z,26.70
2018-06-10T12:53:13.377Z,26.90
2018-06-10T12:55:41.533Z,26.70
2018-06-10T12:58:09.671Z,26.70
2018-06-10T13:00:37.932Z,26.80
2018-06-10T13:03:06.084Z,26.70
2018-06-10T13:05:34.287Z,26.70
2018-06-10T13:12:58.606Z,27.10
2018-06-10T13:17:54.934Z,27.10
2018-06-10T13:20:23.160Z,27.00
2018-06-10T13:22:51.363Z,27.10
2018-06-10T13:25:19.479Z,27.00
2018-06-10T13:27:50.631Z,26.90
2018-06-10T13:30:18.813Z,27.00
2018-06-10T13:32:46.952Z,26.80
2018-06-10T13:35:15.159Z,26.70
2018-06-10T13:37:43.312Z,26.80
2018-06-10T13:40:11.444Z,26.70
2018-06-10T13:42:39.586Z,26.80
2018-06-10T13:45:07.775Z,26.80
2018-06-10T13:47:35.955Z,26.80
2018-06-10T13:50:04.231Z,27.00
2018-06-10T13:52:32.358Z,27.20
2018-06-10T13:55:00.526Z,27.40
2018-06-10T13:57:28.709Z,27.40
2018-06-10T13:59:56.827Z,27.10
2018-06-10T14:02:24.968Z,27.20
2018-06-10T14:04:53.825Z,27.20
2018-06-10T14:07:21.955Z,27.20
2018-06-10T14:09:50.078Z,27.00
2018-06-10T14:12:18.231Z,27.00
2018-06-10T14:17:14.394Z,26.80
2018-06-10T14:19:42.660Z,26.80
2018-06-10T14:22:10.777Z,26.80
2018-06-10T14:24:38.971Z,26.80
2018-06-10T14:27:07.150Z,26.90
2018-06-10T14:29:35.331Z,27.00
2018-06-10T14:32:03.522Z,27.20
2018-06-10T14:34:31.645Z,27.30
2018-06-10T14:36:59.806Z,27.20
2018-06-10T14:39:27.981Z,27.10
2018-06-10T14:41:56.140Z,26.60
2018-06-10T14:44:24.344Z,26.40
2018-06-10T14:46:52.497Z,26.50
2018-06-10T14:49:20.681Z,26.40
2018-06-10T14:51:48.827Z,26.20
2018-06-10T14:54:17.020Z,26.20
2018-06-10T14:56:45.131Z,26.30
2018-06-10T15:01:41.457Z,26.30
2018-06-10T15:04:09.600Z,26.50
2018-06-10T15:06:37.716Z,26.40
2018-06-10T15:11:36.063Z,26.60
2018-06-10T15:14:04.367Z,26.70
2018-06-10T15:16:32.605Z,26.80
2018-06-10T15:19:00.772Z,26.90
2018-06-10T15:21:28.923Z,26.70
2018-06-10T15:23:57.073Z,26.50
2018-06-10T15:28:53.247Z,26.40
2018-06-10T15:31:21.538Z,26.50
2018-06-10T15:33:49.701Z,26.50
2018-06-10T15:36:17.906Z,26.70
2018-06-10T15:38:46.074Z,26.80
2018-06-10T15:41:14.252Z,26.90
2018-06-10T15:43:42.395Z,27.00
2018-06-10T15:46:10.559Z,27.00
2018-06-10T15:48:38.676Z,27.00
2018-06-10T15:51:06.885Z,27.10
2018-06-10T15:53:35.031Z,27.20
2018-06-10T15:56:10.057Z,27.30
2018-06-10T15:58:38.258Z,27.30
2018-06-10T16:01:06.493Z,27.00
2018-06-10T16:03:34.673Z,26.90
2018-06-10T16:06:02.765Z,26.80
2018-06-10T16:10:59.009Z,26.80
2018-06-10T16:13:27.128Z,26.80
2018-06-10T16:15:55.276Z,26.90
2018-06-10T16:18:23.486Z,27.10
2018-06-10T16:20:51.616Z,27.40
2018-06-10T16:23:19.761Z,27.50
2018-06-10T16:25:47.949Z,27.40
2018-06-10T16:28:16.155Z,27.40
2018-06-10T16:33:12.397Z,27.50
2018-06-10T16:35:40.640Z,27.50
2018-06-10T16:38:08.793Z,27.50
2018-06-10T16:40:37.029Z,27.50
2018-06-10T16:43:05.277Z,27.20
2018-06-10T16:45:33.553Z,27.10
2018-06-10T16:48:01.689Z,26.70
2018-06-10T16:52:57.903Z,26.50
2018-06-10T16:55:26.039Z,26.60
2018-06-10T16:57:54.235Z,26.60
2018-06-10T17:00:22.417Z,26.40
2018-06-10T17:02:50.569Z,26.30
2018-06-10T17:05:18.790Z,26.20
2018-06-10T17:07:46.928Z,26.20
2018-06-10T17:10:15.093Z,26.20
2018-06-10T17:12:43.202Z,26.10
2018-06-10T17:15:11.362Z,26.10
2018-06-10T17:17:39.653Z,26.00
2018-06-10T17:20:07.839Z,26.10
2018-06-10T17:25:04.284Z,25.90
2018-06-10T17:30:00.858Z,25.80
2018-06-10T17:32:29.048Z,25.80
2018-06-10T17:34:57.200Z,25.60
2018-06-10T17:37:25.429Z,25.60
2018-06-10T17:39:53.593Z,25.60
2018-06-10T17:42:21.861Z,25.70
2018-06-10T17:44:50.017Z,25.60
2018-06-10T17:47:18.167Z,25.50
2018-06-10T17:49:46.333Z,25.50
2018-06-10T17:52:14.511Z,25.50
2018-06-10T17:54:42.742Z,25.40
2018-06-10T17:57:10.953Z,25.40
2018-06-10T17:59:39.112Z,25.40
2018-06-10T18:02:07.284Z,25.30
2018-06-10T18:07:03.615Z,25.10
2018-06-10T18:09:31.840Z,25.00
2018-06-10T18:11:59.986Z,25.00
2018-06-10T18:14:28.195Z,24.90
2018-06-10T18:16:56.481Z,24.90
2018-06-10T18:19:24.753Z,24.70
2018-06-10T18:21:53.004Z,24.70
2018-06-10T18:24:21.194Z,24.70
2018-06-10T18:26:49.404Z,24.40
2018-06-10T18:29:17.496Z,24.30
2018-06-10T18:31:45.734Z,24.30
2018-06-10T18:34:13.923Z,24.40
2018-06-10T18:36:42.219Z,24.30
2018-06-10T18:41:38.468Z,24.40
2018-06-10T18:44:06.670Z,24.40
2018-06-10T18:46:34.940Z,24.40
2018-06-10T18:49:03.177Z,24.40
2018-06-10T18:51:31.411Z,24.30
2018-06-10T18:53:59.770Z,24.40
2018-06-10T18:56:28.019Z,24.40
2018-06-10T18:58:56.204Z,24.40
2018-06-10T19:01:24.521Z,24.40
2018-06-10T19:03:52.758Z,24.50
2018-06-10T19:06:21.038Z,24.40
2018-06-10T19:11:17.473Z,24.50
2018-06-10T19:13:45.741Z,24.60
2018-06-10T19:16:13.981Z,24.50
2018-06-10T19:18:42.331Z,24.50
2018-06-10T19:21:10.545Z,24.50
2018-06-10T19:23:38.753Z,24.40
2018-06-10T19:26:06.944Z,24.20
2018-06-10T19:28:35.381Z,24.20
2018-06-10T19:31:03.508Z,24.10
2018-06-10T19:33:31.718Z,24.10
2018-06-10T19:36:01.112Z,24.10
2018-06-10T19:38:29.382Z,24.20
2018-06-10T19:40:57.623Z,24.20
2018-06-10T19:43:26.003Z,24.20
2018-06-10T19:45:54.391Z,24.20
2018-06-10T19:48:22.684Z,24.10
2018-06-10T19:50:50.948Z,24.00
2018-06-10T19:53:19.113Z,24.00
2018-06-10T19:55:47.382Z,24.00
2018-06-10T19:58:15.671Z,24.00
2018-06-10T20:00:43.925Z,23.90
2018-06-10T20:03:12.112Z,23.90
2018-06-10T20:05:40.362Z,23.90
2018-06-10T20:08:08.648Z,23.90
2018-06-10T20:10:36.874Z,23.90
2018-06-10T20:13:05.180Z,23.90
2018-06-10T20:15:33.401Z,23.80
2018-06-10T20:18:01.598Z,23.60
2018-06-10T20:20:29.877Z,23.60
2018-06-10T20:22:58.065Z,23.60
2018-06-10T20:25:26.294Z,23.60
2018-06-10T20:27:54.541Z,23.60
2018-06-10T20:30:22.883Z,23.50
2018-06-10T20:32:51.008Z,23.40
2018-06-10T20:37:47.391Z,23.20
2018-06-10T20:40:15.603Z,23.10
2018-06-10T20:42:43.771Z,23.10
2018-06-10T20:45:11.973Z,23.00
2018-06-10T20:47:40.117Z,22.90
2018-06-10T20:50:09.124Z,22.90
2018-06-10T20:52:37.294Z,22.90
2018-06-10T20:55:05.444Z,22.80
2018-06-10T20:57:33.612Z,22.90
2018-06-10T21:00:01.805Z,22.80
2018-06-10T21:02:29.932Z,22.80
2018-06-10T21:04:58.129Z,22.80
2018-06-10T21:07:26.316Z,22.80
2018-06-10T21:09:54.471Z,22.70
2018-06-10T21:12:22.757Z,22.60
2018-06-10T21:14:50.894Z,22.60
2018-06-10T21:17:19.155Z,22.60
2018-06-10T21:19:47.364Z,22.50
2018-06-10T21:22:15.578Z,22.50
2018-06-10T21:24:43.736Z,22.50
2018-06-10T21:27:12.041Z,22.30
2018-06-10T21:29:40.225Z,22.30
2018-06-10T21:32:08.425Z,22.40
2018-06-10T21:34:36.595Z,22.50
2018-06-10T21:37:04.747Z,22.50
2018-06-10T21:39:32.874Z,22.50
2018-06-10T21:42:01.091Z,22.50
2018-06-10T21:44:29.294Z,22.30
2018-06-10T21:46:57.432Z,22.10
2018-06-10T21:49:25.611Z,22.10
2018-06-10T21:51:53.783Z,22.10
2018-06-10T21:54:22.011Z,22.30
2018-06-10T21:56:50.175Z,22.40
2018-06-10T21:59:18.331Z,22.50
2018-06-10T22:01:46.582Z,22.60
2018-06-10T22:04:14.790Z,22.60
2018-06-10T22:06:42.913Z,22.70
2018-06-10T22:09:11.064Z,22.60
2018-06-10T22:11:39.202Z,22.50
2018-06-10T22:14:07.313Z,22.50
2018-06-10T22:16:35.482Z,22.60
2018-06-10T22:19:03.779Z,22.60
2018-06-10T22:21:31.903Z,22.70
2018-06-10T22:23:59.997Z,22.50
2018-06-10T22:26:28.101Z,22.50
2018-06-10T22:28:56.201Z,22.60
2018-06-10T22:31:24.304Z,22.50
2018-06-10T22:33:52.389Z,22.30
2018-06-10T22:36:20.588Z,22.20
2018-06-10T22:38:48.672Z,22.20
2018-06-10T22:41:16.848Z,22.10
2018-06-10T22:43:44.914Z,22.00
2018-06-10T22:46:12.956Z,21.90
2018-06-10T22:48:41.120Z,21.80
2018-06-10T22:51:09.227Z,21.70
2018-06-10T22:54:42.090Z,21.70
2018-06-10T22:57:10.269Z,21.70
2018-06-10T22:59:38.394Z,21.70
2018-06-10T23:02:08.368Z,21.80
2018-06-10T23:04:36.522Z,21.80
2018-06-10T23:07:04.763Z,21.80
2018-06-10T23:09:32.862Z,21.80
2018-06-10T23:14:29.067Z,21.70
2018-06-10T23:16:57.162Z,21.70
2018-06-10T23:19:25.297Z,21.60
2018-06-10T23:21:53.387Z,21.50
2018-06-10T23:24:21.612Z,21.50
2018-06-10T23:26:49.693Z,21.50
2018-06-10T23:29:17.804Z,21.30
2018-06-10T23:31:46.156Z,21.20
2018-06-10T23:34:14.248Z,21.30
2018-06-10T23:36:42.338Z,21.20
2018-06-10T23:39:10.517Z,21.30
2018-06-10T23:41:38.617Z,21.40
2018-06-10T23:44:06.780Z,21.30
2018-06-10T23:46:34.891Z,21.30
2018-06-10T23:49:03.038Z,21.30
2018-06-10T23:51:31.128Z,21.40
2018-06-10T23:53:59.263Z,21.40
2018-06-10T23:56:27.401Z,21.40
2018-06-10T23:58:55.502Z,21.30
